Time;durP1;ratioP1;P1;durP2;ratioP2;P2;SDS_P1;SDS_P2;PMS_P1;PMS_P2;Temp;Humidity;BMP_temperature;BMP_pressure;BME280_temperature;BME280_humidity;BME280_pressure;Samples;Min_cycle;Max_cycle;Signal;HPM_P1;HPM_P2
2023/10/31 00:01:23;;;;;;;5.27;1.10;;;;;;;19.42;68.08;98877.06;5128271;27;20234;-59
2023/10/31 00:03:49;;;;;;;2.37;1.20;;;;;;;19.42;68.32;98875.00;5128368;27;20454;-59
2023/10/31 00:06:14;;;;;;;3.43;0.90;;;;;;;19.44;68.22;98874.59;5129238;27;20165;-60
2023/10/31 00:08:40;;;;;;;3.13;0.90;;;;;;;19.42;68.20;98877.84;5128141;27;20181;-60
2023/10/31 00:11:05;;;;;;;3.60;0.93;;;;;;;19.44;68.21;98877.44;5127612;27;20197;-60
2023/10/31 00:13:31;;;;;;;1.70;0.70;;;;;;;19.43;68.41;98873.78;5125666;27;20181;-59
2023/10/31 00:15:56;;;;;;;3.27;1.07;;;;;;;19.43;68.51;98868.06;5119709;27;20181;-60
2023/10/31 00:18:22;;;;;;;2.80;1.00;;;;;;;19.44;68.46;98869.69;5111314;27;20173;-59
2023/10/31 00:20:47;;;;;;;1.93;0.90;;;;;;;19.44;68.45;98866.00;5127801;27;20212;-60
2023/10/31 00:23:13;;;;;;;3.93;1.00;;;;;;;19.44;68.68;98863.97;5124943;27;20197;-59
2023/10/31 00:25:39;;;;;;;1.80;0.63;;;;;;;19.43;69.05;98868.06;5120299;27;20227;-59
2023/10/31 00:28:04;;;;;;;3.00;0.90;;;;;;;19.44;69.06;98868.84;5128914;27;20890;-60
2023/10/31 00:30:30;;;;;;;3.07;1.10;;;;;;;19.41;68.75;98870.50;5126860;27;20192;-60
2023/10/31 00:32:55;;;;;;;1.87;0.90;;;;;;;19.42;69.17;98875.00;5127455;27;20177;-59
2023/10/31 00:35:20;;;;;;;2.70;0.70;;;;;;;19.39;69.12;98873.00;5119583;27;20188;-60
2023/10/31 00:37:46;;;;;;;1.90;0.73;;;;;;;19.39;69.15;98875.84;5109512;28;20173;-59
2023/10/31 00:40:11;;;;;;;1.63;0.70;;;;;;;19.39;69.26;98870.13;5127824;27;20169;-60
2023/10/31 00:42:38;;;;;;;2.27;0.90;;;;;;;19.39;69.12;98878.72;5127667;28;20196;-59
2023/10/31 00:45:04;;;;;;;2.00;0.67;;;;;;;19.40;69.04;98873.78;5114392;28;20185;-60
2023/10/31 00:47:29;;;;;;;1.90;0.80;;;;;;;19.42;69.06;98869.28;5107531;28;20422;-60
2023/10/31 00:49:54;;;;;;;2.20;0.90;;;;;;;19.40;69.38;98866.03;5126648;28;20509;-60
2023/10/31 00:52:20;;;;;;;2.63;0.83;;;;;;;19.41;69.13;98869.72;5124795;28;20449;-60
2023/10/31 00:54:45;;;;;;;2.80;0.80;;;;;;;19.40;69.04;98868.91;5127428;28;20173;-59
2023/10/31 00:57:11;;;;;;;4.17;1.10;;;;;;;19.40;69.32;98868.91;5127024;28;20226;-60
2023/10/31 00:59:37;;;;;;;3.60;1.00;;;;;;;19.41;69.58;98872.59;5126229;28;20184;-59
2023/10/31 01:02:02;;;;;;;1.83;0.80;;;;;;;19.41;69.63;98887.69;5129539;28;20183;-59
2023/10/31 01:04:28;;;;;;;1.50;0.57;;;;;;;19.40;69.01;98880.34;5129368;28;20418;-59
2023/10/31 01:06:53;;;;;;;1.80;0.70;;;;;;;19.41;69.34;98881.97;5127138;28;20185;-60
2023/10/31 01:09:19;;;;;;;2.23;0.90;;;;;;;19.42;68.98;98883.59;5108052;28;20531;-59
2023/10/31 01:11:44;;;;;;;3.20;0.70;;;;;;;19.42;69.22;98886.44;5111033;28;20673;-60
2023/10/31 01:14:09;;;;;;;1.70;0.80;;;;;;;19.41;69.07;98884.81;5124265;28;20203;-60
2023/10/31 01:16:35;;;;;;;2.00;0.63;;;;;;;19.44;69.23;98888.91;5128362;28;20173;-60
2023/10/31 01:19:00;;;;;;;3.13;0.80;;;;;;;19.44;68.96;98904.03;5124678;28;20309;-60
2023/10/31 01:21:26;;;;;;;1.50;0.70;;;;;;;19.42;69.15;98897.91;5124143;28;20289;-59
2023/10/31 01:23:51;;;;;;;1.70;0.77;;;;;;;19.41;69.12;98902.00;5127331;28;20660;-63
2023/10/31 01:26:17;;;;;;;2.47;0.60;;;;;;;19.43;69.27;98898.72;5116209;27;20216;-64
2023/10/31 01:28:42;;;;;;;2.33;0.83;;;;;;;19.42;69.17;98900.75;5127265;28;20230;-63
2023/10/31 01:31:08;;;;;;;1.93;0.80;;;;;;;19.41;69.37;98890.53;5127391;28;20193;-63
2023/10/31 01:33:33;;;;;;;1.40;0.60;;;;;;;19.42;69.55;98899.97;5116593;28;20178;-64
2023/10/31 01:35:59;;;;;;;2.37;0.70;;;;;;;19.42;69.39;98903.63;5117681;27;20430;-64
2023/10/31 01:38:24;;;;;;;3.27;0.80;;;;;;;19.41;69.20;98899.13;5131352;27;20221;-64
2023/10/31 01:40:53;;;;;;;2.10;0.90;;;;;;;19.41;69.19;98895.47;5119110;27;20186;-64
2023/10/31 01:43:34;;;;;;;1.87;0.80;;;;;;;19.40;69.53;98899.56;5123566;27;20240;-64
2023/10/31 01:46:00;;;;;;;2.30;0.70;;;;;;;19.41;69.46;98904.84;5124062;27;20804;-63
2023/10/31 01:48:25;;;;;;;2.50;0.77;;;;;;;19.41;69.35;98907.72;5120633;27;20441;-64
2023/10/31 01:50:51;;;;;;;1.93;0.70;;;;;;;19.41;69.36;98916.31;5114500;27;20173;-64
2023/10/31 01:53:16;;;;;;;1.50;0.70;;;;;;;19.40;69.46;98917.53;5129433;27;20184;-64
2023/10/31 01:55:43;;;;;;;1.47;0.70;;;;;;;19.39;69.41;98924.50;5138528;27;20210;-64
2023/10/31 01:58:09;;;;;;;2.47;0.80;;;;;;;19.42;69.22;98920.00;5129483;27;20185;-64
2023/10/31 02:00:39;;;;;;;2.17;0.70;;;;;;;19.41;69.29;98927.75;5132590;27;20828;-64
2023/10/31 02:03:05;;;;;;;1.50;0.60;;;;;;;19.41;69.20;98927.75;5125753;27;20462;-63
2023/10/31 02:05:32;;;;;;;1.70;0.77;;;;;;;19.39;69.29;98924.50;5125727;27;20422;-64
2023/10/31 02:07:57;;;;;;;1.97;0.80;;;;;;;19.40;69.62;98929.00;5131993;27;20179;-63
2023/10/31 02:10:22;;;;;;;1.50;0.67;;;;;;;19.42;69.09;98931.44;5123809;27;20442;-64
2023/10/31 02:12:48;;;;;;;1.90;0.80;;;;;;;19.41;69.36;98930.63;5117748;27;20189;-64
2023/10/31 02:15:13;;;;;;;1.90;0.87;;;;;;;19.40;69.59;98925.31;5130948;27;20298;-64
2023/10/31 02:17:39;;;;;;;1.70;0.90;;;;;;;19.41;69.23;98932.69;5113418;27;20189;-64
2023/10/31 02:20:05;;;;;;;2.17;0.83;;;;;;;19.38;69.76;98934.34;5129766;27;20220;-64
2023/10/31 02:22:31;;;;;;;1.67;0.70;;;;;;;19.36;69.47;98936.78;5123525;27;20537;-63
2023/10/31 02:24:56;;;;;;;2.77;0.90;;;;;;;19.39;69.50;98938.00;5130068;27;20423;-64
2023/10/31 02:27:21;;;;;;;3.00;0.80;;;;;;;19.38;69.67;98948.66;5130124;27;20188;-64
2023/10/31 02:29:47;;;;;;;1.50;0.80;;;;;;;19.40;69.29;98951.88;5130048;27;20173;-64
2023/10/31 02:32:12;;;;;;;1.90;0.60;;;;;;;19.39;69.38;98947.41;5127539;27;20189;-63
2023/10/31 02:34:38;;;;;;;2.07;0.70;;;;;;;19.38;69.72;98951.50;5129884;27;20208;-60
2023/10/31 02:37:03;;;;;;;1.60;0.70;;;;;;;19.37;69.70;98949.84;5131252;27;20207;-59
2023/10/31 02:39:28;;;;;;;1.37;0.60;;;;;;;19.35;69.87;98955.19;5131191;27;20172;-60
2023/10/31 02:41:54;;;;;;;2.63;0.90;;;;;;;19.38;69.35;98962.13;5095336;28;20208;-60
2023/10/31 02:44:19;;;;;;;1.20;0.50;;;;;;;19.38;69.51;98962.13;5130074;27;20180;-60
2023/10/31 02:46:45;;;;;;;1.90;0.80;;;;;;;19.36;69.56;98961.75;5131692;27;20173;-60
2023/10/31 02:49:10;;;;;;;1.70;0.80;;;;;;;19.37;69.75;98967.03;5128593;27;20522;-60
2023/10/31 02:51:36;;;;;;;1.47;0.70;;;;;;;19.38;69.49;98970.72;5122736;27;20192;-60
2023/10/31 02:54:01;;;;;;;2.13;0.67;;;;;;;19.36;69.85;98978.91;5131052;27;20189;-59
2023/10/31 02:56:26;;;;;;;1.77;0.70;;;;;;;19.36;69.46;98988.31;5130534;27;20308;-59
2023/10/31 02:58:52;;;;;;;2.17;1.03;;;;;;;19.35;69.68;98983.81;5131306;27;20192;-60
2023/10/31 03:01:19;;;;;;;1.30;0.50;;;;;;;19.37;69.63;98989.91;5127066;27;20189;-60
2023/10/31 03:03:45;;;;;;;1.70;0.70;;;;;;;19.36;69.45;98974.00;5131655;27;20605;-60
2023/10/31 03:06:10;;;;;;;3.77;0.80;;;;;;;19.35;69.43;98983.00;5130254;27;20414;-60
2023/10/31 03:08:36;;;;;;;5.10;0.80;;;;;;;19.34;69.69;98990.78;5128658;27;20188;-60
2023/10/31 03:11:01;;;;;;;1.50;0.60;;;;;;;19.34;69.86;98998.53;5112195;27;20204;-60
2023/10/31 03:13:27;;;;;;;1.50;0.70;;;;;;;19.35;69.92;99001.00;5129648;27;20260;-60
2023/10/31 03:15:52;;;;;;;1.77;0.90;;;;;;;19.36;69.68;98999.75;5126913;27;20186;-60
2023/10/31 03:18:18;;;;;;;2.33;0.70;;;;;;;19.35;69.49;99003.84;5108527;27;20189;-60
2023/10/31 03:20:45;;;;;;;1.63;0.63;;;;;;;19.35;69.44;99012.44;5109923;27;20224;-60
2023/10/31 03:23:10;;;;;;;2.03;0.70;;;;;;;19.37;69.51;99003.44;5127353;27;20541;-59
2023/10/31 03:25:36;;;;;;;2.03;0.70;;;;;;;19.33;69.87;99017.78;5094857;28;20458;-60
2023/10/31 03:28:02;;;;;;;2.40;0.83;;;;;;;19.32;69.92;99015.31;5109628;27;20184;-60
2023/10/31 03:30:27;;;;;;;2.20;1.10;;;;;;;19.32;69.89;99027.56;5125016;27;20184;-60
2023/10/31 03:32:53;;;;;;;1.40;0.60;;;;;;;19.35;69.63;99028.78;5129010;27;20180;-60
2023/10/31 03:35:18;;;;;;;1.40;0.60;;;;;;;19.33;69.78;99028.38;5122378;27;20561;-60
2023/10/31 03:37:44;;;;;;;1.50;0.60;;;;;;;19.33;70.13;99031.25;5130842;27;20315;-60
2023/10/31 03:40:09;;;;;;;1.50;0.80;;;;;;;19.33;69.63;99032.09;5127174;27;20697;-60
2023/10/31 03:42:35;;;;;;;1.40;0.70;;;;;;;19.32;70.02;99046.81;5127047;27;20212;-60
2023/10/31 03:45:00;;;;;;;1.67;0.50;;;;;;;19.32;69.79;99049.66;5110217;28;20182;-64
2023/10/31 03:47:25;;;;;;;1.80;0.60;;;;;;;19.33;69.53;99051.28;5112806;27;20247;-63
2023/10/31 03:49:51;;;;;;;1.50;0.70;;;;;;;19.34;69.68;99048.00;5118498;27;20181;-63
2023/10/31 03:52:16;;;;;;;1.30;0.60;;;;;;;19.32;69.57;99050.47;5125962;27;20165;-64
2023/10/31 03:54:42;;;;;;;1.67;0.60;;;;;;;19.33;69.89;99048.44;5108799;27;20612;-64
2023/10/31 03:57:07;;;;;;;2.07;0.70;;;;;;;19.31;70.05;99050.91;5127948;27;20207;-63
2023/10/31 03:59:33;;;;;;;1.70;0.67;;;;;;;19.32;69.61;99050.47;5129601;27;20180;-64
2023/10/31 04:01:58;;;;;;;1.80;0.70;;;;;;;19.32;69.88;99044.72;5120728;27;20188;-64
2023/10/31 04:04:23;;;;;;;1.53;0.60;;;;;;;19.32;69.62;99046.81;5130381;27;20301;-64
2023/10/31 04:06:49;;;;;;;1.57;0.60;;;;;;;19.32;69.67;99047.59;5129829;27;20173;-64
2023/10/31 04:09:14;;;;;;;1.73;0.70;;;;;;;19.30;69.72;99052.94;5129936;27;20181;-64
2023/10/31 04:11:41;;;;;;;1.60;0.60;;;;;;;19.32;69.81;99056.19;5125293;27;20277;-64
2023/10/31 04:14:06;;;;;;;2.07;1.07;;;;;;;19.31;69.90;99048.03;5129215;27;20278;-64
2023/10/31 04:16:32;;;;;;;1.40;0.60;;;;;;;19.30;69.77;99047.22;5118404;27;20439;-64
2023/10/31 04:18:57;;;;;;;1.60;0.63;;;;;;;19.33;69.68;99048.44;5112207;27;20181;-64
2023/10/31 04:21:22;;;;;;;2.20;1.03;;;;;;;19.33;69.64;99051.28;5127812;27;20225;-64
2023/10/31 04:23:48;;;;;;;1.40;0.60;;;;;;;19.32;69.59;99053.31;5128156;27;20543;-63
2023/10/31 04:26:14;;;;;;;1.50;0.63;;;;;;;19.32;69.78;99049.66;5124667;27;20709;-64
2023/10/31 04:28:39;;;;;;;2.07;0.90;;;;;;;19.30;69.68;99052.09;5128887;27;20181;-64
2023/10/31 04:31:05;;;;;;;1.47;0.70;;;;;;;19.32;69.62;99047.59;5129731;27;20490;-64
2023/10/31 04:33:30;;;;;;;1.60;0.70;;;;;;;19.33;69.64;99048.44;5129542;27;20177;-64
2023/10/31 04:35:55;;;;;;;1.93;0.80;;;;;;;19.30;69.87;99050.06;5111709;28;20676;-64
2023/10/31 04:38:21;;;;;;;1.40;0.70;;;;;;;19.30;70.07;99061.53;5109249;28;20579;-64
2023/10/31 04:40:46;;;;;;;1.20;0.50;;;;;;;19.31;69.70;99050.91;5111525;28;20644;-64
2023/10/31 04:43:12;;;;;;;1.30;0.57;;;;;;;19.31;69.83;99054.56;5119611;28;20788;-64
2023/10/31 04:45:37;;;;;;;2.07;0.77;;;;;;;19.31;69.66;99048.84;5126827;28;20181;-64
2023/10/31 04:48:03;;;;;;;1.30;0.50;;;;;;;19.32;69.61;99053.31;5112014;28;20639;-64
2023/10/31 04:50:28;;;;;;;1.30;0.60;;;;;;;19.32;69.58;99041.88;5129686;28;20181;-64
2023/10/31 04:52:54;;;;;;;1.50;0.70;;;;;;;19.30;69.84;99055.78;5129566;28;20253;-64
2023/10/31 04:55:19;;;;;;;1.90;0.70;;;;;;;19.31;69.90;99056.63;5124663;27;20637;-60
2023/10/31 04:57:44;;;;;;;1.50;0.60;;;;;;;19.30;69.78;99052.94;5109267;28;20617;-59
2023/10/31 05:00:10;;;;;;;1.40;0.77;;;;;;;19.32;69.62;99058.25;5127494;28;20176;-60
2023/10/31 05:02:36;;;;;;;1.80;0.80;;;;;;;19.33;69.61;99051.28;5126569;28;20203;-60
2023/10/31 05:05:01;;;;;;;1.97;0.70;;;;;;;19.31;69.75;99048.03;5128496;28;20188;-60
2023/10/31 05:07:27;;;;;;;1.60;0.70;;;;;;;19.31;69.93;99060.28;5125623;28;20284;-60
2023/10/31 05:09:52;;;;;;;1.70;0.70;;;;;;;19.32;69.65;99064.78;5127886;27;20184;-60
2023/10/31 05:12:18;;;;;;;1.40;0.60;;;;;;;19.31;69.76;99070.94;5131659;27;20193;-60
2023/10/31 05:14:43;;;;;;;1.60;0.70;;;;;;;19.31;70.05;99076.66;5128255;27;20412;-60
2023/10/31 05:17:08;;;;;;;1.83;0.70;;;;;;;19.33;69.68;99074.19;5119593;27;20313;-60
2023/10/31 05:19:34;;;;;;;1.63;0.70;;;;;;;19.31;69.85;99071.72;5124799;27;20221;-60
2023/10/31 05:21:59;;;;;;;1.93;0.80;;;;;;;19.33;69.43;99072.16;5130434;27;20185;-60
2023/10/31 05:24:25;;;;;;;1.60;0.60;;;;;;;19.32;69.72;99079.06;5128638;27;20201;-60
2023/10/31 05:26:50;;;;;;;1.40;0.60;;;;;;;19.30;69.91;99087.28;5121097;27;20181;-60
2023/10/31 05:29:15;;;;;;;1.87;0.70;;;;;;;19.31;69.82;99091.75;5131477;27;20188;-59
2023/10/31 05:31:44;;;;;;;1.57;0.73;;;;;;;19.32;69.92;99081.94;5127660;27;20581;-59
2023/10/31 05:34:09;;;;;;;1.50;0.70;;;;;;;19.33;69.68;99086.47;5126545;27;20614;-60
2023/10/31 05:36:35;;;;;;;1.40;0.57;;;;;;;19.31;69.67;99082.38;5111035;28;20464;-60
2023/10/31 05:39:00;;;;;;;1.43;0.70;;;;;;;19.32;69.62;99089.72;5124308;27;20177;-60
2023/10/31 05:41:26;;;;;;;1.60;0.60;;;;;;;19.32;69.43;99096.25;5132928;27;20210;-59
2023/10/31 05:43:51;;;;;;;2.03;0.53;;;;;;;19.33;69.68;99092.19;5124277;27;20209;-60
2023/10/31 05:46:17;;;;;;;2.17;0.70;;;;;;;19.32;69.78;99113.41;5112507;28;20735;-59
2023/10/31 05:48:46;;;;;;;1.83;0.70;;;;;;;19.34;69.64;99118.72;5119590;27;20181;-60
2023/10/31 05:51:15;;;;;;;1.50;0.60;;;;;;;19.31;69.76;99123.25;5109270;27;20323;-60
2023/10/31 05:53:41;;;;;;;1.70;0.70;;;;;;;19.31;69.72;99123.25;5132737;27;21206;-59
2023/10/31 05:56:08;;;;;;;1.67;0.70;;;;;;;19.31;69.62;99131.81;5136618;27;20442;-60
2023/10/31 05:58:34;;;;;;;4.80;0.87;;;;;;;19.32;69.57;99136.31;5124792;27;20458;-60
2023/10/31 06:00:59;;;;;;;1.60;0.80;;;;;;;19.33;69.62;99146.56;5125242;27;20439;-60
2023/10/31 06:03:25;;;;;;;1.50;0.70;;;;;;;19.34;69.78;99142.47;5118580;27;20200;-60
2023/10/31 06:05:50;;;;;;;1.70;0.70;;;;;;;19.33;69.61;99142.88;5129170;27;20196;-64
2023/10/31 06:08:15;;;;;;;1.30;0.60;;;;;;;19.31;69.74;99151.84;5124508;27;20177;-64
2023/10/31 06:10:41;;;;;;;2.03;0.60;;;;;;;19.33;69.77;99151.44;5130328;27;20185;-64
2023/10/31 06:13:06;;;;;;;1.50;0.60;;;;;;;19.33;69.67;99155.13;5130679;27;20305;-64
2023/10/31 06:15:32;;;;;;;2.47;0.50;;;;;;;19.34;69.50;99159.63;5128699;27;20648;-65
2023/10/31 06:17:57;;;;;;;2.50;0.77;;;;;;;19.33;69.74;99152.28;5120895;27;20521;-64
2023/10/31 06:20:23;;;;;;;2.00;0.80;;;;;;;19.32;69.91;99162.06;5132022;27;20251;-63
2023/10/31 06:22:49;;;;;;;1.57;0.60;;;;;;;19.32;69.61;99153.47;5129628;27;20208;-64
2023/10/31 06:25:14;;;;;;;2.27;0.60;;;;;;;19.32;69.92;99164.13;5128453;27;20184;-63
2023/10/31 06:27:40;;;;;;;1.73;0.80;;;;;;;19.35;69.74;99157.56;5123329;27;20532;-64
2023/10/31 06:30:06;;;;;;;1.50;0.60;;;;;;;19.34;69.78;99158.81;5130430;27;20699;-64
2023/10/31 06:32:31;;;;;;;1.47;0.60;;;;;;;19.33;69.51;99168.63;5119218;27;20173;-64
2023/10/31 06:34:57;;;;;;;1.80;0.60;;;;;;;19.33;69.78;99160.88;5130016;27;20426;-63
2023/10/31 06:37:22;;;;;;;1.60;0.60;;;;;;;19.33;69.47;99166.59;5122615;27;20186;-64
2023/10/31 06:39:48;;;;;;;1.50;0.70;;;;;;;19.33;70.02;99166.59;5130396;27;20661;-64
2023/10/31 06:42:13;;;;;;;1.80;0.70;;;;;;;19.33;69.92;99163.72;5130865;27;20180;-64
2023/10/31 06:44:38;;;;;;;1.70;0.60;;;;;;;19.35;69.37;99164.13;5130220;27;20169;-64
2023/10/31 06:47:04;;;;;;;1.30;0.60;;;;;;;19.32;69.78;99156.34;5126571;27;20188;-64
2023/10/31 06:49:30;;;;;;;1.50;0.70;;;;;;;19.34;69.35;99165.34;5130134;27;20177;-64
2023/10/31 06:51:55;;;;;;;2.13;0.67;;;;;;;19.35;69.28;99169.84;5125171;27;20216;-64
2023/10/31 06:54:21;;;;;;;2.20;0.70;;;;;;;19.35;69.44;99166.97;5128474;27;20692;-64
2023/10/31 06:56:47;;;;;;;1.27;0.57;;;;;;;19.37;69.50;99172.28;5128570;27;20233;-63
2023/10/31 06:59:13;;;;;;;1.40;0.60;;;;;;;19.34;69.75;99176.78;5127439;27;20788;-63
2023/10/31 07:01:38;;;;;;;1.30;0.50;;;;;;;19.35;69.46;99186.19;5099491;28;20656;-63
2023/10/31 07:04:04;;;;;;;1.63;0.60;;;;;;;19.34;69.48;99181.69;5127451;27;20488;-64
2023/10/31 07:06:29;;;;;;;1.73;0.77;;;;;;;19.34;69.72;99190.28;5107899;27;20184;-65
2023/10/31 07:09:00;;;;;;;1.53;0.60;;;;;;;19.35;69.44;99187.00;5112239;27;20193;-64
2023/10/31 07:11:25;;;;;;;1.40;0.50;;;;;;;19.33;69.51;99195.22;5127666;27;20750;-64
2023/10/31 07:13:51;;;;;;;1.53;0.70;;;;;;;19.36;69.34;99193.56;5125206;27;20479;-64
2023/10/31 07:16:16;;;;;;;1.43;0.60;;;;;;;19.34;69.81;99202.56;5130125;27;20173;-64
2023/10/31 07:18:42;;;;;;;1.80;1.00;;;;;;;19.37;69.41;99210.28;5129879;27;20193;-64
2023/10/31 07:21:07;;;;;;;1.70;0.60;;;;;;;19.38;69.49;99211.13;5129521;27;20583;-64
2023/10/31 07:23:33;;;;;;;1.43;0.60;;;;;;;19.37;69.33;99218.09;5120649;27;20244;-64
2023/10/31 07:25:58;;;;;;;1.20;0.50;;;;;;;19.38;69.26;99214.00;5119300;27;20181;-64
2023/10/31 07:28:23;;;;;;;1.57;0.60;;;;;;;19.39;69.56;99212.75;5128421;27;20537;-64
2023/10/31 07:30:50;;;;;;;1.70;0.80;;;;;;;19.30;69.16;99207.47;5117364;27;20617;-64
2023/10/31 07:33:15;;;;;;;2.70;0.90;;;;;;;19.07;67.90;99217.72;5118622;27;20578;-63
2023/10/31 07:35:41;;;;;;;1.70;0.70;;;;;;;19.00;67.77;99218.53;5124518;27;20445;-64
2023/10/31 07:38:07;;;;;;;10.20;1.00;;;;;;;19.14;67.09;99220.53;5129474;27;20177;-64
2023/10/31 07:40:33;;;;;;;4.40;1.13;;;;;;;19.13;66.86;99216.06;5117149;27;20705;-64
2023/10/31 07:42:58;;;;;;;14.90;3.57;;;;;;;19.45;69.61;99211.91;5116990;27;20454;-66
2023/10/31 07:45:23;;;;;;;8.63;1.83;;;;;;;19.59;66.87;99220.47;5128710;27;20192;-66
2023/10/31 07:47:49;;;;;;;7.20;1.87;;;;;;;19.68;67.19;99226.59;5128019;27;20636;-66
2023/10/31 07:50:15;;;;;;;5.60;1.57;;;;;;;19.75;67.68;99220.81;5123503;27;20196;-66
2023/10/31 07:52:40;;;;;;;4.80;1.57;;;;;;;19.76;67.97;99224.50;5111397;27;20196;-65
2023/10/31 07:55:06;;;;;;;4.47;1.40;;;;;;;19.65;66.56;99227.41;5130547;27;20601;-66
2023/10/31 07:57:31;;;;;;;3.83;1.47;;;;;;;19.72;67.30;99238.81;5128359;27;20184;-66
2023/10/31 07:59:57;;;;;;;4.10;1.63;;;;;;;19.82;67.24;99240.03;5122772;27;20639;-65
2023/10/31 08:02:22;;;;;;;7.27;1.57;;;;;;;19.74;67.80;99236.38;5118995;27;20189;-64
2023/10/31 08:04:48;;;;;;;5.60;1.60;;;;;;;19.82;67.66;99246.53;5125206;27;20185;-65
2023/10/31 08:07:13;;;;;;;3.50;1.13;;;;;;;19.83;67.40;99247.38;5121871;27;20177;-65
2023/10/31 08:09:39;;;;;;;3.23;1.40;;;;;;;19.79;67.93;99252.28;5124587;27;20674;-66
2023/10/31 08:12:04;;;;;;;5.30;0.90;;;;;;;19.78;67.62;99251.50;5111345;27;20672;-65
2023/10/31 08:14:30;;;;;;;4.40;1.23;;;;;;;19.80;67.68;99253.94;5111760;27;20532;-66
2023/10/31 08:16:55;;;;;;;5.10;1.20;;;;;;;19.78;67.58;99259.25;5128697;27;20594;-66
2023/10/31 08:19:21;;;;;;;3.83;1.30;;;;;;;19.84;67.54;99257.59;5120991;27;20575;-65
2023/10/31 08:21:46;;;;;;;6.40;1.27;;;;;;;19.82;67.17;99269.47;5131197;27;20169;-65
2023/10/31 08:24:13;;;;;;;5.10;1.10;;;;;;;19.87;67.03;99256.78;5110380;27;20208;-65
2023/10/31 08:26:38;;;;;;;7.07;1.83;;;;;;;19.85;67.23;99262.09;5112185;27;20648;-65
2023/10/31 08:29:04;;;;;;;3.50;1.00;;;;;;;19.85;67.38;99268.66;5113191;27;20426;-65
2023/10/31 08:31:29;;;;;;;6.07;2.03;;;;;;;19.84;67.41;99267.03;5086775;28;20384;-65
2023/10/31 08:33:55;;;;;;;4.57;1.10;;;;;;;19.83;66.78;99265.38;5105089;27;20173;-65
2023/10/31 08:36:20;;;;;;;4.87;1.50;;;;;;;19.90;68.08;99271.09;5112315;28;20173;-65
2023/10/31 08:38:46;;;;;;;6.13;2.20;;;;;;;19.98;67.67;99275.56;5089798;28;20165;-65
2023/10/31 08:41:11;;;;;;;3.93;0.97;;;;;;;19.96;68.29;99272.28;5120570;27;20535;-66
2023/10/31 08:43:37;;;;;;;5.90;1.43;;;;;;;19.91;68.38;99277.63;5128831;28;20679;-66
2023/10/31 08:46:03;;;;;;;6.27;1.77;;;;;;;19.95;67.58;99287.84;5122290;27;20705;-66
2023/10/31 08:48:28;;;;;;;3.77;1.17;;;;;;;19.99;68.33;99284.97;5125834;28;20210;-65
2023/10/31 08:50:53;;;;;;;2.53;1.10;;;;;;;19.99;68.75;99271.47;5115684;28;20431;-65
2023/10/31 08:53:19;;;;;;;3.00;1.20;;;;;;;19.93;68.44;99280.91;5126774;28;20194;-65
2023/10/31 08:55:44;;;;;;;3.50;1.03;;;;;;;19.87;68.38;99282.56;5141962;27;20229;-65
2023/10/31 08:58:13;;;;;;;5.67;1.17;;;;;;;19.88;68.63;99290.75;5096156;28;20318;-64
2023/10/31 09:00:40;;;;;;;6.33;1.30;;;;;;;20.08;69.13;99293.97;5089678;28;20181;-65
2023/10/31 09:03:06;;;;;;;6.40;1.03;;;;;;;20.09;68.84;99293.56;5074809;28;20559;-65
2023/10/31 09:05:31;;;;;;;3.93;1.10;;;;;;;19.97;69.02;99290.31;5126325;27;21036;-64
2023/10/31 09:07:57;;;;;;;3.00;1.10;;;;;;;20.02;68.82;99289.88;5128448;28;20532;-65
2023/10/31 09:10:23;;;;;;;2.40;0.90;;;;;;;20.03;69.37;99298.06;5128807;28;20522;-64
2023/10/31 09:12:48;;;;;;;5.60;1.13;;;;;;;20.02;69.13;99289.88;5124885;28;20837;-64
2023/10/31 09:15:13;;;;;;;3.03;1.10;;;;;;;19.95;68.95;99292.75;5129659;28;20177;-64
2023/10/31 09:17:39;;;;;;;3.17;1.10;;;;;;;19.94;69.43;99296.84;5129523;28;20215;-64
2023/10/31 09:20:05;;;;;;;2.83;0.93;;;;;;;19.93;68.88;99293.19;5128456;28;20229;-64
2023/10/31 09:22:30;;;;;;;3.80;1.20;;;;;;;19.95;68.95;99296.44;5115655;28;20564;-64
2023/10/31 09:24:56;;;;;;;5.17;1.13;;;;;;;19.96;68.93;99298.06;5109587;28;20423;-64
2023/10/31 09:27:21;;;;;;;2.80;1.07;;;;;;;19.93;69.31;99298.91;5112349;27;20188;-64
2023/10/31 09:29:47;;;;;;;5.70;1.43;;;;;;;19.94;69.23;99308.31;5129103;28;20179;-64
2023/10/31 09:32:12;;;;;;;5.60;1.40;;;;;;;19.87;69.68;99309.13;5122581;28;20181;-64
2023/10/31 09:34:37;;;;;;;5.70;1.13;;;;;;;19.80;69.06;99299.75;5108602;28;20181;-65
2023/10/31 09:37:03;;;;;;;3.77;1.43;;;;;;;19.69;68.95;99301.84;5129916;28;20180;-64
2023/10/31 09:39:28;;;;;;;6.27;1.17;;;;;;;19.59;66.23;99303.50;5129391;28;20814;-64
2023/10/31 09:41:54;;;;;;;5.10;1.70;;;;;;;19.52;65.90;99303.50;5125031;28;20516;-64
2023/10/31 09:44:19;;;;;;;11.40;1.87;;;;;;;19.56;66.00;99300.66;5128388;28;20216;-64
2023/10/31 09:46:45;;;;;;;5.70;1.73;;;;;;;19.58;65.03;99303.91;5127730;28;20169;-64
2023/10/31 09:49:11;;;;;;;6.00;1.60;;;;;;;19.59;64.86;99299.81;5122306;28;20234;-64
2023/10/31 09:51:37;;;;;;;3.00;1.17;;;;;;;19.61;65.64;99303.91;5126953;28;20198;-64
2023/10/31 09:54:03;;;;;;;3.43;1.10;;;;;;;19.59;65.04;99299.81;5127384;28;20188;-64
2023/10/31 09:56:34;;;;;;;7.67;1.97;;;;;;;19.58;65.60;99301.88;5126218;27;20424;-64
2023/10/31 09:59:00;;;;;;;4.73;1.33;;;;;;;19.58;65.09;99301.88;5103329;27;20180;-64
2023/10/31 10:01:25;;;;;;;5.70;1.20;;;;;;;19.56;66.81;99307.19;5131755;27;20430;-64
2023/10/31 10:03:51;;;;;;;7.67;1.37;;;;;;;19.60;68.29;99310.84;5124273;27;20819;-65
2023/10/31 10:06:16;;;;;;;12.90;1.50;;;;;;;19.56;66.16;99312.09;5131244;27;20181;-64
2023/10/31 10:08:42;;;;;;;13.83;2.10;;;;;;;19.61;66.57;99320.28;5122214;27;20182;-64
2023/10/31 10:11:07;;;;;;;9.67;2.07;;;;;;;19.64;66.40;99305.13;5123860;27;20220;-64
2023/10/31 10:13:33;;;;;;;6.63;1.50;;;;;;;19.63;66.20;99304.31;5125635;27;20529;-64
2023/10/31 10:15:59;;;;;;;9.60;1.87;;;;;;;19.64;66.42;99305.94;5112762;27;20455;-64
2023/10/31 10:18:29;;;;;;;5.13;1.63;;;;;;;19.65;66.33;99310.44;5116386;27;20214;-63
2023/10/31 10:21:04;;;;;;;4.03;1.40;;;;;;;19.63;66.44;99315.78;5130766;27;20510;-64
2023/10/31 10:23:30;;;;;;;9.20;2.03;;;;;;;19.62;67.09;99314.13;5110806;27;20467;-64
2023/10/31 10:25:57;;;;;;;9.23;1.77;;;;;;;19.62;66.94;99319.03;5131640;27;21045;-64
2023/10/31 10:28:24;;;;;;;5.40;1.77;;;;;;;19.61;67.19;99312.47;5131194;27;20153;-64
2023/10/31 10:30:50;;;;;;;6.40;1.50;;;;;;;19.60;67.45;99315.75;5102216;27;20929;-65
2023/10/31 10:33:15;;;;;;;7.63;1.73;;;;;;;19.64;67.39;99308.81;5112320;27;20426;-64
2023/10/31 10:35:41;;;;;;;6.43;1.70;;;;;;;19.60;67.63;99312.88;5111155;28;20166;-64
2023/10/31 10:38:16;;;;;;;12.43;2.00;;;;;;;19.61;67.60;99315.34;5113504;27;20653;-65
2023/10/31 10:40:45;;;;;;;6.13;1.47;;;;;;;19.60;67.80;99315.75;5109249;28;20173;-64
2023/10/31 10:43:20;;;;;;;3.33;1.00;;;;;;;19.60;67.99;99313.72;5091882;27;20450;-64
2023/10/31 10:45:46;;;;;;;7.70;1.70;;;;;;;19.58;67.74;99327.66;5109395;27;20442;-60
2023/10/31 10:48:13;;;;;;;5.60;1.70;;;;;;;19.57;68.02;99320.25;5110689;27;20755;-59
2023/10/31 10:50:41;;;;;;;2.63;1.00;;;;;;;19.58;67.95;99321.09;5109871;28;20203;-59
2023/10/31 10:53:22;;;;;;;5.93;1.10;;;;;;;19.59;67.98;99323.53;5119918;27;20430;-60
2023/10/31 10:55:51;;;;;;;3.00;1.60;;;;;;;19.59;68.30;99325.56;5135394;27;20503;-60
2023/10/31 10:58:35;;;;;;;4.73;1.17;;;;;;;19.58;68.18;99324.78;5113622;27;20439;-60
2023/10/31 11:01:00;;;;;;;6.63;1.63;;;;;;;19.59;68.71;99317.00;5110935;28;20411;-60
2023/10/31 11:03:27;;;;;;;4.43;1.30;;;;;;;19.59;68.34;99319.84;5094048;27;20454;-59
2023/10/31 11:05:53;;;;;;;6.73;1.83;;;;;;;19.59;68.68;99322.72;5112121;27;20182;-59
2023/10/31 11:08:20;;;;;;;3.40;1.03;;;;;;;19.58;68.54;99316.19;5092393;28;20441;-59
2023/10/31 11:10:46;;;;;;;4.27;1.20;;;;;;;19.58;68.40;99318.22;5113195;27;20325;-60
2023/10/31 11:13:11;;;;;;;4.07;1.00;;;;;;;19.60;68.39;99312.88;5111327;28;20898;-60
2023/10/31 11:15:36;;;;;;;4.97;1.30;;;;;;;19.58;68.71;99306.78;5113231;27;20174;-60
2023/10/31 11:18:02;;;;;;;4.60;1.20;;;;;;;19.61;68.29;99309.63;5092561;28;20572;-60
2023/10/31 11:20:29;;;;;;;6.17;1.60;;;;;;;19.60;68.25;99313.72;5127960;27;20754;-60
2023/10/31 11:22:57;;;;;;;3.00;1.50;;;;;;;19.61;68.71;99308.81;5131131;27;20603;-59
2023/10/31 11:25:23;;;;;;;5.70;1.40;;;;;;;19.59;68.55;99309.22;5129483;27;20465;-59
2023/10/31 11:27:52;;;;;;;4.20;1.50;;;;;;;19.60;68.68;99325.16;5095576;27;20410;-60